Weather observations for the past three days for
Hays, Hays Regional Airport
Imperial (Metric)
Date Time (cdt) Wind (mph) Vis. (mi.) Weather Sky Cond. Temperature (ºF) Relative Humidity Wind Chill (°F) Heat Index (°F) Pressure Precipitation (in)
Air Dwpt 6 hour altimeter (in) sea level (mb) 1 hr 3 hr 6 hr
Max. Min.
02 11:56 S 21 10.00 Fair and Breezy CLR 96.1 60.1 30% 96 29.93 1011.2
02 10:56 S 21 G 24 10.00 Fair and Breezy CLR 91.9 61 36% 92 29.94 1011.6
02 09:56 S 17 10.00 Fair CLR 86 60.1 42% 86 29.95 1011.9
02 08:56 S 5 10.00 Fair CLR 79 60.1 52% 80 29.96 1012.5
02 07:56 SW 3 10.00 Fair CLR 73.9 57.9 57% 29.96 1012.6
02 06:56 S 5 10.00 Fair CLR 70 57.9 80.1 69.1 66% 29.95 1012.0
02 05:56 S 3 10.00 Fair CLR 72 57.9 61% 29.95 1011.9
02 04:56 SE 3 10.00 A Few Clouds FEW120 71.1 59 66% 29.95 1012.2
02 03:56 Calm 10.00 A Few Clouds FEW120 73 59 62% 29.95 1012.0
02 02:56 S 6 10.00 Fair CLR 75 57.9 55% 78 29.95 1011.9
02 01:56 S 8 10.00 Fair CLR 78.1 59 52% 79 29.94 1011.6
02 00:56 S 13 10.00 Fair CLR 79 59 95 79 50% 80 29.93 1011.3
01 23:56 S 10 10.00 Fair CLR 80.1 60.1 51% 81 29.93 1011.4
01 22:56 S 10 10.00 Fair CLR 82 60.1 47% 82 29.93 1011.3
01 21:56 SE 9 10.00 Fair CLR 82 60.1 47% 82 29.91 1010.8
01 20:56 SE 9 10.00 Fair CLR 84 59 43% 84 29.89 1010.2
01 19:56 S 9 10.00 Fair CLR 87.1 57.9 37% 86 29.89 1010.2
01 18:56 S 10 10.00 Fair CLR 95 55.9 99 95 27% 93 29.89 1010.1
01 17:56 S 15 10.00 Fair CLR 97 55.9 25% 95 29.9 1010.3
01 16:56 S 16 G 21 10.00 Mostly Cloudy BKN100 97 55.9 25% 95 29.91 1010.7
01 15:56 S 16 G 21 10.00 A Few Clouds FEW100 97 57.9 27% 96 29.92 1011.0
01 14:56 S 17 G 23 10.00 A Few Clouds FEW095 99 59 27% 99 29.94 1011.5
01 13:56 SW 16 10.00 Mostly Cloudy BKN100 97 59 28% 97 29.96 1012.0
01 12:56 SW 10 10.00 A Few Clouds FEW110 97 61 97 69.1 30% 98 29.98 1012.8
01 11:56 SW 9 10.00 Partly Cloudy SCT110 93 62.1 36% 94 30 1013.6
01 10:56 SW 14 10.00 A Few Clouds FEW110 88 61 40% 88 30 1013.7
01 09:56 SW 12 9.00 Fair CLR 84.9 62.1 46% 85 30 1013.5
01 08:56 SW 9 10.00 Fair CLR 78.1 63 60% 80 30.01 1014.1
01 07:56 S 6 8.00 Fair CLR 71.1 61 71% 30.01 1014.2
01 06:56 SW 6 10.00 Fair CLR 70 60.1 82 70 71% 29.99 1013.6
01 05:56 S 3 10.00 Fair CLR 73 60.1 64% 29.99 1013.4
01 04:56 SW 9 10.00 Fair CLR 73 59 62% 29.98 1013.0
01 03:56 S 13 10.00 Fair CLR 75 59 58% 77 29.98 1012.8
01 02:56 S 12 10.00 Fair CLR 77 60.1 56% 79 29.98 1012.7
01 01:56 SW 13 10.00 Fair CLR 80.1 59 49% 81 29.96 1012.2
01 00:56 S 17 10.00 Fair CLR 82 60.1 97 80.1 47% 82 29.94 1011.6
31 23:56 S 14 10.00 Fair CLR 82.9 60.1 46% 83 29.94 1011.5
31 22:56 SE 9 10.00 Fair CLR 82 60.1 47% 82 29.95 1012.0
31 21:56 Calm 10.00 Fair CLR 86 59 40% 85 29.94 1011.8
31 20:56 S 6 10.00 Fair CLR 91.9 60.1 34% 92 29.9 1010.5
31 19:56 N 6 10.00 Fair CLR 90 66 45% 93 29.89 1010.1
31 18:56 N 10 10.00 Fair CLR 97 64.9 100 91.9 35% 100 29.88 1009.7
31 17:56 S 6 10.00 Fair CLR 100 60.1 27% 101 29.89 1009.8
31 16:56 SW 9 10.00 Fair CLR 100 61 28% 101 29.91 1010.3
31 15:56 SW 6 G 22 10.00 Fair CLR 99 61 29% 100 29.93 1011.0
31 14:56 S 9 10.00 Fair CLR 98.1 63 32% 100 29.95 1011.9
31 13:56 S 6 G 16 10.00 Fair CLR 95 62.1 34% 96 29.97 1012.5
31 12:56 SE 7 10.00 Fair CLR 91.9 62.1 91.9 71.1 37% 93 29.98 1013.1
31 11:56 S 9 9.00 Fair CLR 90 62.1 39% 90 29.99 1013.4
31 10:56 S 12 10.00 Fair CLR 84.9 63 48% 86 29.98 1013.2
31 09:56 SE 9 10.00 Fair CLR 80.1 68 67% 83 29.97 1012.8
31 08:56 SE 8 10.00 A Few Clouds FEW050 75 68 79% 76 29.97 1012.9
31 07:56 S 7 10.00 Mostly Cloudy FEW070 SCT095 BKN110 72 66 82% 29.97 1012.7
31 06:56 E 3 10.00 Fair CLR 73 66 81 73 79% 29.97 1012.5
31 05:56 N 14 10.00 Mostly Cloudy BKN120 73.9 66 76% 29.98 1013.0
31 04:56 NW 10 10.00 Thunderstorm in Vicinity BKN110 75.9 66.9 74% 77 29.98 1013.0
31 03:56 W 12 G 20 10.00 Light Rain FEW050 OVC110 77 68 74% 79 29.98 1012.9
31 02:56 W 7 10.00 Partly Cloudy SCT120 78.1 68 71% 80 29.91 1010.6
31 01:56 Calm 10.00 Fair CLR 77 69.1 77% 79 29.9 1010.6
31 00:56 E 10 10.00 Partly Cloudy FEW049 SCT090 SCT120 81 66.9 96.1 79 62% 83 29.91 1010.7
30 23:56 E 7 10.00 Mostly Cloudy BKN110 81 66.9 62% 83 29.92 1011.0
30 22:56 N 6 10.00 Mostly Cloudy BKN110 82 66 58% 84 29.89 1010.0
30 21:56 NE 6 10.00 Fair CLR 82 66.9 60% 85 29.87 1009.5
30 20:56 N 7 10.00 Fair CLR 82.9 68 61% 86 29.85 1008.9
30 19:56 N 10 10.00 Fair CLR 90 66.9 47% 93 29.83 1008.0
30 18:56 N 9 10.00 Fair CLR 96.1 66.9 98.1 88 39% 100 29.82 1007.5
30 17:56 N 6 10.00 Fair CLR 98.1 66 35% 102 29.82 1007.4
30 16:56 Calm 10.00 Fair CLR 97 64 34% 99 29.82 1007.4
30 15:56 NW 7 10.00 Fair CLR 95 66.9 40% 99 29.84 1008.1
30 14:56 NW 7 10.00 Fair CLR 93 66.9 42% 97 29.86 1008.9
30 13:56 Vrbl 5 10.00 Fair CLR 91 66.9 45% 94 29.88 1009.3
30 12:56 Vrbl 5 10.00 Fair CLR 88 66 89.1 75 48% 90 29.88 1009.5
Date Time (cdt) Wind (mph) Vis. (mi.) Weather Sky Cond. Air Dwpt Max. Min. Relative Humidity Wind Chill (°F) Heat Index (°F) altimeter (in) sea level (mb) 1 hr 3 hr 6 hr
6 hour
Temperature (ºF) Pressure Precipitation (in)